CheckWX is a tool to help pilots better visualize weather data.  It is not intended as a substitute for an official pre-flight weather briefing.

02:35:54 UTC

LPMR TAF
Monte Real Airport
Portugal
TAF LPMR 222304Z 2300/2324 28012KT 9999 SCT025 TEMPO 2300/2324 4000 SHRA SCT012 BKN018 FEW020TCU PROB40 TEMPO 2304/2321 27015G28KT 2500 TSRAGS SCT009 BKN014 SCT020CB BECMG 2321/2323 21008KT SCT012 BKN020

Apr-23@
00:00 UTC

Apr-23 @ 00:00 UTC

Apr-23@
21:00 UTC

Apr-23 @ 21:00 UTC

TAF LPMR 222304Z 2300/2324 28012KT 9999 SCT025
Wind
  • 280° at 12 KTS
Cloud Levels
  • Scattered at 2,500' AGL

Apr-23@
00:00 UTC

Apr-23 @ 00:00 UTC

Apr-24@
00:00 UTC

Apr-24 @ 00:00 UTC

TEMPO 2300/2324 4000 SHRA SCT012 BKN018 FEW020TCU

Temporary

Temporary Changes expected for less than half the time period

Conditions
Rain
Cloud Levels
  • Scattered at 1,200' AGL
  • Broken at 1,800' AGL
  • Few at 2,000' AGL

Apr-23@
04:00 UTC

Apr-23 @ 04:00 UTC

Apr-23@
21:00 UTC

Apr-23 @ 21:00 UTC

PROB40 TEMPO 2304/2321 27015G28KT 2500 TSRAGS SCT009 BKN014 SCT020CB

Temporary - 40% Likelihood

Temporary - 40% Likelihood during this time.

Wind
  • 270° at 15 KTS
  • {Gusting to 28 KTS
Conditions
Thunderstorm, Rain, Thunderstorm, Small hail
Cloud Levels
  • Scattered at 900' AGL
  • Broken at 1,400' AGL
  • Scattered at 2,000' AGL

Apr-23@
21:00 UTC

Apr-23 @ 21:00 UTC

Apr-24@
00:00 UTC

Apr-24 @ 00:00 UTC

BECMG 2321/2323 21008KT SCT012 BKN020

Becoming

Becoming Conditions expected by Tue, Apr 23, 2019 @ 23:00 UTC

Wind
  • 210° at 8 KTS
Cloud Levels
  • Scattered at 1,200' AGL
  • Broken at 2,000' AGL